Manti, Utah
Current Conditions -  °F | °C
As of 3:55 PM on Tuesday 21 Oct 2014 (Local Time) from KDTA Reporting Station
Clear Clear  
Wind Chill: 70°   Ceiling: Unl
Heat Index: 70°   Visibility: 10mi
Dew Point: 34°   Wind: 14mph
Humidity: 27%   Direction: 320°NW
Pressure: 29.92"   Gusts: 18mph
Location:  39.27°N, 111.64°W
Report Text: KDTA 212155Z AUTO 32012G16KT 10SM CLR 21/01 A2992 RMK AO1 T02090010
Loading
Personal Weather Stations






























Interactive Weather Map New forecast layout! Learn more

10-Day Weather Forecast

Advertisements
Track Severe Weather on mobile